sensor_id;sensor_type;location;lat;lon;timestamp;P1;durP1;ratioP1;P2;durP2;ratioP2
51810;SDS011;52468;40.116;18.296;2023-06-10T00:01:06;9.43;;;5.73;;
51810;SDS011;52468;40.116;18.296;2023-06-10T00:03:34;9.03;;;5.17;;
51810;SDS011;52468;40.116;18.296;2023-06-10T00:06:01;8.43;;;5.53;;
51810;SDS011;52468;40.116;18.296;2023-06-10T00:08:29;6.47;;;5.37;;
51810;SDS011;52468;40.116;18.296;2023-06-10T00:10:58;10.50;;;6.03;;
51810;SDS011;52468;40.116;18.296;2023-06-10T00:13:26;7.03;;;5.30;;
51810;SDS011;52468;40.116;18.296;2023-06-10T00:15:54;7.73;;;5.33;;
51810;SDS011;52468;40.116;18.296;2023-06-10T00:18:22;7.27;;;5.13;;
51810;SDS011;52468;40.116;18.296;2023-06-10T00:20:50;8.17;;;5.43;;
51810;SDS011;52468;40.116;18.296;2023-06-10T00:23:20;8.93;;;6.13;;
51810;SDS011;52468;40.116;18.296;2023-06-10T00:25:48;8.80;;;5.73;;
51810;SDS011;52468;40.116;18.296;2023-06-10T00:28:16;6.60;;;4.90;;
51810;SDS011;52468;40.116;18.296;2023-06-10T00:30:44;6.70;;;5.10;;
51810;SDS011;52468;40.116;18.296;2023-06-10T00:33:12;6.40;;;5.13;;
51810;SDS011;52468;40.116;18.296;2023-06-10T00:35:39;8.97;;;5.67;;
51810;SDS011;52468;40.116;18.296;2023-06-10T00:38:07;5.93;;;5.20;;
51810;SDS011;52468;40.116;18.296;2023-06-10T00:40:39;6.53;;;5.13;;
51810;SDS011;52468;40.116;18.296;2023-06-10T00:43:08;9.82;;;6.00;;
51810;SDS011;52468;40.116;18.296;2023-06-10T00:45:36;8.50;;;6.17;;
51810;SDS011;52468;40.116;18.296;2023-06-10T00:48:04;7.97;;;5.53;;
51810;SDS011;52468;40.116;18.296;2023-06-10T00:50:32;8.13;;;5.10;;
51810;SDS011;52468;40.116;18.296;2023-06-10T00:53:01;7.37;;;5.50;;
51810;SDS011;52468;40.116;18.296;2023-06-10T00:55:30;6.90;;;5.80;;
51810;SDS011;52468;40.116;18.296;2023-06-10T00:57:59;8.87;;;6.20;;
51810;SDS011;52468;40.116;18.296;2023-06-10T01:00:28;11.33;;;5.63;;
51810;SDS011;52468;40.116;18.296;2023-06-10T01:02:56;8.20;;;5.23;;
51810;SDS011;52468;40.116;18.296;2023-06-10T01:05:26;6.53;;;5.80;;
51810;SDS011;52468;40.116;18.296;2023-06-10T01:08:05;10.27;;;5.60;;
51810;SDS011;52468;40.116;18.296;2023-06-10T01:10:38;7.97;;;6.43;;
51810;SDS011;52468;40.116;18.296;2023-06-10T01:13:10;8.70;;;6.93;;
51810;SDS011;52468;40.116;18.296;2023-06-10T01:15:40;10.63;;;6.63;;
51810;SDS011;52468;40.116;18.296;2023-06-10T01:18:09;8.63;;;6.33;;
51810;SDS011;52468;40.116;18.296;2023-06-10T01:20:42;8.30;;;5.38;;
51810;SDS011;52468;40.116;18.296;2023-06-10T01:23:11;11.50;;;6.70;;
51810;SDS011;52468;40.116;18.296;2023-06-10T01:25:45;9.40;;;5.47;;
51810;SDS011;52468;40.116;18.296;2023-06-10T01:28:27;7.87;;;5.83;;
51810;SDS011;52468;40.116;18.296;2023-06-10T01:31:07;8.45;;;6.75;;
51810;SDS011;52468;40.116;18.296;2023-06-10T01:33:45;9.37;;;5.77;;
51810;SDS011;52468;40.116;18.296;2023-06-10T01:36:15;14.25;;;7.65;;
51810;SDS011;52468;40.116;18.296;2023-06-10T01:38:46;13.17;;;6.90;;
51810;SDS011;52468;40.116;18.296;2023-06-10T01:41:18;11.00;;;7.43;;
51810;SDS011;52468;40.116;18.296;2023-06-10T01:46:16;11.90;;;8.37;;
51810;SDS011;52468;40.116;18.296;2023-06-10T01:48:48;11.93;;;8.00;;
51810;SDS011;52468;40.116;18.296;2023-06-10T01:51:16;11.97;;;8.30;;
51810;SDS011;52468;40.116;18.296;2023-06-10T01:53:44;12.57;;;7.13;;
51810;SDS011;52468;40.116;18.296;2023-06-10T01:56:12;11.00;;;7.47;;
51810;SDS011;52468;40.116;18.296;2023-06-10T01:58:45;10.97;;;6.73;;
51810;SDS011;52468;40.116;18.296;2023-06-10T02:01:14;6.93;;;6.07;;
51810;SDS011;52468;40.116;18.296;2023-06-10T02:03:42;6.73;;;5.87;;
51810;SDS011;52468;40.116;18.296;2023-06-10T02:06:09;7.97;;;6.70;;
51810;SDS011;52468;40.116;18.296;2023-06-10T02:08:37;9.57;;;6.70;;
51810;SDS011;52468;40.116;18.296;2023-06-10T02:11:05;9.13;;;5.97;;
51810;SDS011;52468;40.116;18.296;2023-06-10T02:13:34;7.50;;;5.27;;
51810;SDS011;52468;40.116;18.296;2023-06-10T02:16:02;8.30;;;5.50;;
51810;SDS011;52468;40.116;18.296;2023-06-10T02:18:30;10.70;;;5.73;;
51810;SDS011;52468;40.116;18.296;2023-06-10T02:20:57;8.17;;;5.80;;
51810;SDS011;52468;40.116;18.296;2023-06-10T02:23:26;6.97;;;5.33;;
51810;SDS011;52468;40.116;18.296;2023-06-10T02:25:54;10.43;;;5.67;;
51810;SDS011;52468;40.116;18.296;2023-06-10T02:28:21;8.57;;;6.00;;
51810;SDS011;52468;40.116;18.296;2023-06-10T02:30:49;6.47;;;5.40;;
51810;SDS011;52468;40.116;18.296;2023-06-10T02:33:20;6.10;;;5.00;;
51810;SDS011;52468;40.116;18.296;2023-06-10T02:35:48;6.43;;;4.60;;
51810;SDS011;52468;40.116;18.296;2023-06-10T02:38:16;11.00;;;6.20;;
51810;SDS011;52468;40.116;18.296;2023-06-10T02:40:44;8.50;;;6.67;;
51810;SDS011;52468;40.116;18.296;2023-06-10T02:43:12;7.33;;;5.87;;
51810;SDS011;52468;40.116;18.296;2023-06-10T02:45:41;7.93;;;5.43;;
51810;SDS011;52468;40.116;18.296;2023-06-10T02:48:10;6.97;;;4.63;;
51810;SDS011;52468;40.116;18.296;2023-06-10T02:50:38;7.63;;;5.13;;
51810;SDS011;52468;40.116;18.296;2023-06-10T02:53:22;10.03;;;6.20;;
51810;SDS011;52468;40.116;18.296;2023-06-10T02:55:55;10.70;;;5.72;;
51810;SDS011;52468;40.116;18.296;2023-06-10T02:58:23;8.60;;;5.93;;
51810;SDS011;52468;40.116;18.296;2023-06-10T03:00:51;8.23;;;6.33;;
51810;SDS011;52468;40.116;18.296;2023-06-10T03:03:20;10.17;;;6.73;;
51810;SDS011;52468;40.116;18.296;2023-06-10T03:06:04;10.57;;;6.70;;
51810;SDS011;52468;40.116;18.296;2023-06-10T03:08:33;11.63;;;6.43;;
51810;SDS011;52468;40.116;18.296;2023-06-10T03:11:06;8.50;;;6.25;;
51810;SDS011;52468;40.116;18.296;2023-06-10T03:13:35;8.93;;;5.23;;
51810;SDS011;52468;40.116;18.296;2023-06-10T03:16:03;7.97;;;6.40;;
51810;SDS011;52468;40.116;18.296;2023-06-10T03:18:34;7.80;;;6.37;;
51810;SDS011;52468;40.116;18.296;2023-06-10T03:21:02;7.47;;;5.47;;
51810;SDS011;52468;40.116;18.296;2023-06-10T03:23:30;12.23;;;5.20;;
51810;SDS011;52468;40.116;18.296;2023-06-10T03:26:00;7.13;;;6.00;;
51810;SDS011;52468;40.116;18.296;2023-06-10T03:28:30;9.33;;;6.37;;
51810;SDS011;52468;40.116;18.296;2023-06-10T03:30:58;10.20;;;6.73;;
51810;SDS011;52468;40.116;18.296;2023-06-10T03:33:28;8.90;;;6.70;;
51810;SDS011;52468;40.116;18.296;2023-06-10T03:35:55;10.83;;;7.20;;
51810;SDS011;52468;40.116;18.296;2023-06-10T03:38:24;11.67;;;5.97;;
51810;SDS011;52468;40.116;18.296;2023-06-10T03:40:53;9.13;;;6.23;;
51810;SDS011;52468;40.116;18.296;2023-06-10T03:43:21;7.07;;;5.47;;
51810;SDS011;52468;40.116;18.296;2023-06-10T03:45:50;9.17;;;5.77;;
51810;SDS011;52468;40.116;18.296;2023-06-10T03:48:19;8.63;;;6.07;;
51810;SDS011;52468;40.116;18.296;2023-06-10T03:50:51;8.23;;;5.80;;
51810;SDS011;52468;40.116;18.296;2023-06-10T03:53:20;8.73;;;5.60;;
51810;SDS011;52468;40.116;18.296;2023-06-10T03:55:48;7.30;;;4.43;;
51810;SDS011;52468;40.116;18.296;2023-06-10T03:58:19;6.67;;;4.43;;
51810;SDS011;52468;40.116;18.296;2023-06-10T04:00:48;9.70;;;4.33;;
51810;SDS011;52468;40.116;18.296;2023-06-10T04:03:16;10.63;;;6.00;;
51810;SDS011;52468;40.116;18.296;2023-06-10T04:05:47;5.53;;;4.50;;
51810;SDS011;52468;40.116;18.296;2023-06-10T04:08:15;5.60;;;4.63;;
51810;SDS011;52468;40.116;18.296;2023-06-10T04:10:42;9.07;;;4.80;;
51810;SDS011;52468;40.116;18.296;2023-06-10T04:13:11;6.90;;;4.87;;
51810;SDS011;52468;40.116;18.296;2023-06-10T04:15:48;8.20;;;5.20;;
51810;SDS011;52468;40.116;18.296;2023-06-10T04:18:17;8.97;;;5.10;;
51810;SDS011;52468;40.116;18.296;2023-06-10T04:20:46;9.97;;;6.70;;
51810;SDS011;52468;40.116;18.296;2023-06-10T04:23:14;10.13;;;7.33;;
51810;SDS011;52468;40.116;18.296;2023-06-10T04:25:44;10.77;;;8.43;;
51810;SDS011;52468;40.116;18.296;2023-06-10T04:28:12;11.50;;;6.83;;
51810;SDS011;52468;40.116;18.296;2023-06-10T04:30:42;15.90;;;8.80;;
51810;SDS011;52468;40.116;18.296;2023-06-10T04:33:11;15.00;;;10.23;;
51810;SDS011;52468;40.116;18.296;2023-06-10T04:35:40;15.73;;;9.83;;
51810;SDS011;52468;40.116;18.296;2023-06-10T04:38:11;14.27;;;10.07;;
51810;SDS011;52468;40.116;18.296;2023-06-10T04:40:40;13.20;;;9.70;;
51810;SDS011;52468;40.116;18.296;2023-06-10T04:43:09;17.87;;;8.70;;
51810;SDS011;52468;40.116;18.296;2023-06-10T04:45:37;15.73;;;11.07;;
51810;SDS011;52468;40.116;18.296;2023-06-10T04:48:06;22.13;;;11.47;;
51810;SDS011;52468;40.116;18.296;2023-06-10T04:50:35;14.60;;;9.90;;
51810;SDS011;52468;40.116;18.296;2023-06-10T04:53:03;14.63;;;10.20;;
51810;SDS011;52468;40.116;18.296;2023-06-10T04:55:31;13.90;;;9.73;;
51810;SDS011;52468;40.116;18.296;2023-06-10T04:58:01;11.53;;;8.53;;
51810;SDS011;52468;40.116;18.296;2023-06-10T05:00:29;14.30;;;9.13;;
51810;SDS011;52468;40.116;18.296;2023-06-10T05:02:57;14.43;;;9.77;;
51810;SDS011;52468;40.116;18.296;2023-06-10T05:05:24;12.57;;;7.83;;
51810;SDS011;52468;40.116;18.296;2023-06-10T05:07:52;11.10;;;7.80;;
51810;SDS011;52468;40.116;18.296;2023-06-10T05:10:20;12.67;;;8.50;;
51810;SDS011;52468;40.116;18.296;2023-06-10T05:12:48;11.03;;;6.50;;
51810;SDS011;52468;40.116;18.296;2023-06-10T05:15:16;8.53;;;5.50;;
51810;SDS011;52468;40.116;18.296;2023-06-10T05:17:43;10.57;;;5.33;;
51810;SDS011;52468;40.116;18.296;2023-06-10T05:20:11;14.37;;;5.97;;
51810;SDS011;52468;40.116;18.296;2023-06-10T05:22:40;9.50;;;4.43;;
51810;SDS011;52468;40.116;18.296;2023-06-10T05:25:08;6.20;;;4.53;;
51810;SDS011;52468;40.116;18.296;2023-06-10T05:27:36;7.10;;;4.40;;
51810;SDS011;52468;40.116;18.296;2023-06-10T05:30:05;9.87;;;4.53;;
51810;SDS011;52468;40.116;18.296;2023-06-10T05:32:34;6.63;;;4.90;;
51810;SDS011;52468;40.116;18.296;2023-06-10T05:35:02;8.40;;;5.00;;
51810;SDS011;52468;40.116;18.296;2023-06-10T05:37:33;4.55;;;4.10;;
51810;SDS011;52468;40.116;18.296;2023-06-10T05:40:01;5.50;;;4.10;;
51810;SDS011;52468;40.116;18.296;2023-06-10T05:42:31;5.63;;;3.75;;
51810;SDS011;52468;40.116;18.296;2023-06-10T05:44:59;5.78;;;3.45;;
51810;SDS011;52468;40.116;18.296;2023-06-10T05:47:26;4.95;;;3.35;;
51810;SDS011;52468;40.116;18.296;2023-06-10T05:49:54;4.25;;;3.40;;
51810;SDS011;52468;40.116;18.296;2023-06-10T05:52:22;6.68;;;3.13;;
51810;SDS011;52468;40.116;18.296;2023-06-10T05:54:50;8.13;;;4.15;;
51810;SDS011;52468;40.116;18.296;2023-06-10T05:57:18;6.03;;;3.72;;
51810;SDS011;52468;40.116;18.296;2023-06-10T05:59:46;7.18;;;3.95;;
51810;SDS011;52468;40.116;18.296;2023-06-10T06:02:14;3.80;;;2.67;;
51810;SDS011;52468;40.116;18.296;2023-06-10T06:04:41;7.00;;;3.28;;
51810;SDS011;52468;40.116;18.296;2023-06-10T06:07:09;7.63;;;3.85;;
51810;SDS011;52468;40.116;18.296;2023-06-10T06:09:37;6.18;;;2.78;;
51810;SDS011;52468;40.116;18.296;2023-06-10T06:12:05;6.75;;;2.78;;
51810;SDS011;52468;40.116;18.296;2023-06-10T06:14:36;4.10;;;3.15;;
51810;SDS011;52468;40.116;18.296;2023-06-10T06:17:06;4.85;;;2.40;;
51810;SDS011;52468;40.116;18.296;2023-06-10T06:19:34;5.18;;;3.22;;
51810;SDS011;52468;40.116;18.296;2023-06-10T06:22:02;4.97;;;2.35;;
51810;SDS011;52468;40.116;18.296;2023-06-10T06:24:30;3.95;;;2.75;;
51810;SDS011;52468;40.116;18.296;2023-06-10T06:26:58;4.70;;;2.40;;
51810;SDS011;52468;40.116;18.296;2023-06-10T06:29:26;5.55;;;2.80;;
51810;SDS011;52468;40.116;18.296;2023-06-10T06:31:54;4.55;;;2.63;;
51810;SDS011;52468;40.116;18.296;2023-06-10T06:34:22;4.00;;;2.40;;
51810;SDS011;52468;40.116;18.296;2023-06-10T06:36:49;4.30;;;3.00;;
51810;SDS011;52468;40.116;18.296;2023-06-10T06:39:18;5.55;;;3.63;;
51810;SDS011;52468;40.116;18.296;2023-06-10T06:41:46;3.53;;;2.33;;
51810;SDS011;52468;40.116;18.296;2023-06-10T06:44:14;5.63;;;4.32;;
51810;SDS011;52468;40.116;18.296;2023-06-10T06:46:43;5.95;;;2.65;;
51810;SDS011;52468;40.116;18.296;2023-06-10T06:49:11;3.72;;;2.22;;
51810;SDS011;52468;40.116;18.296;2023-06-10T06:51:39;8.43;;;5.88;;
51810;SDS011;52468;40.116;18.296;2023-06-10T06:54:07;8.48;;;4.63;;
51810;SDS011;52468;40.116;18.296;2023-06-10T06:56:35;5.70;;;4.35;;
51810;SDS011;52468;40.116;18.296;2023-06-10T06:59:02;7.32;;;4.13;;
51810;SDS011;52468;40.116;18.296;2023-06-10T07:01:33;5.03;;;4.03;;
51810;SDS011;52468;40.116;18.296;2023-06-10T07:04:01;8.65;;;5.10;;
51810;SDS011;52468;40.116;18.296;2023-06-10T07:06:29;5.25;;;3.38;;
51810;SDS011;52468;40.116;18.296;2023-06-10T07:08:57;5.50;;;2.78;;
51810;SDS011;52468;40.116;18.296;2023-06-10T07:11:25;7.10;;;3.97;;
51810;SDS011;52468;40.116;18.296;2023-06-10T07:13:54;4.75;;;3.33;;
51810;SDS011;52468;40.116;18.296;2023-06-10T07:16:22;7.20;;;3.78;;
51810;SDS011;52468;40.116;18.296;2023-06-10T07:18:49;5.18;;;3.00;;
51810;SDS011;52468;40.116;18.296;2023-06-10T07:21:17;4.28;;;2.33;;
51810;SDS011;52468;40.116;18.296;2023-06-10T07:23:45;4.68;;;3.05;;
51810;SDS011;52468;40.116;18.296;2023-06-10T07:26:13;4.45;;;2.58;;
51810;SDS011;52468;40.116;18.296;2023-06-10T07:28:41;5.93;;;2.55;;
51810;SDS011;52468;40.116;18.296;2023-06-10T07:31:09;3.08;;;2.10;;
51810;SDS011;52468;40.116;18.296;2023-06-10T07:33:39;2.85;;;2.50;;
51810;SDS011;52468;40.116;18.296;2023-06-10T07:36:06;2.75;;;2.00;;
51810;SDS011;52468;40.116;18.296;2023-06-10T07:38:35;3.60;;;2.20;;
51810;SDS011;52468;40.116;18.296;2023-06-10T07:41:03;4.53;;;2.65;;
51810;SDS011;52468;40.116;18.296;2023-06-10T07:43:30;4.53;;;1.80;;
51810;SDS011;52468;40.116;18.296;2023-06-10T07:45:58;4.32;;;2.70;;
51810;SDS011;52468;40.116;18.296;2023-06-10T07:48:27;4.30;;;3.08;;
51810;SDS011;52468;40.116;18.296;2023-06-10T07:50:55;7.50;;;4.43;;
51810;SDS011;52468;40.116;18.296;2023-06-10T07:53:22;5.82;;;2.53;;
51810;SDS011;52468;40.116;18.296;2023-06-10T07:55:50;2.63;;;2.30;;
51810;SDS011;52468;40.116;18.296;2023-06-10T07:58:18;3.47;;;2.35;;
51810;SDS011;52468;40.116;18.296;2023-06-10T08:00:46;5.50;;;2.88;;
51810;SDS011;52468;40.116;18.296;2023-06-10T08:03:14;2.55;;;1.92;;
51810;SDS011;52468;40.116;18.296;2023-06-10T08:05:42;3.65;;;2.92;;
51810;SDS011;52468;40.116;18.296;2023-06-10T08:08:10;3.15;;;2.53;;
51810;SDS011;52468;40.116;18.296;2023-06-10T08:10:37;3.13;;;2.60;;
51810;SDS011;52468;40.116;18.296;2023-06-10T08:13:05;4.80;;;2.97;;
51810;SDS011;52468;40.116;18.296;2023-06-10T08:15:34;2.95;;;2.38;;
51810;SDS011;52468;40.116;18.296;2023-06-10T08:18:02;2.97;;;1.83;;
51810;SDS011;52468;40.116;18.296;2023-06-10T08:20:30;3.22;;;2.50;;
51810;SDS011;52468;40.116;18.296;2023-06-10T08:22:59;5.43;;;2.45;;
51810;SDS011;52468;40.116;18.296;2023-06-10T08:25:27;5.72;;;2.70;;
51810;SDS011;52468;40.116;18.296;2023-06-10T08:27:55;6.28;;;2.40;;
51810;SDS011;52468;40.116;18.296;2023-06-10T08:30:24;6.55;;;2.88;;
51810;SDS011;52468;40.116;18.296;2023-06-10T08:32:52;4.00;;;2.47;;
51810;SDS011;52468;40.116;18.296;2023-06-10T08:35:20;6.78;;;1.98;;
51810;SDS011;52468;40.116;18.296;2023-06-10T08:37:48;4.28;;;2.10;;
51810;SDS011;52468;40.116;18.296;2023-06-10T08:40:16;2.70;;;2.20;;
51810;SDS011;52468;40.116;18.296;2023-06-10T08:43:00;5.10;;;3.25;;
51810;SDS011;52468;40.116;18.296;2023-06-10T08:45:31;4.43;;;2.72;;
51810;SDS011;52468;40.116;18.296;2023-06-10T08:48:03;5.10;;;2.42;;
51810;SDS011;52468;40.116;18.296;2023-06-10T08:50:34;5.93;;;2.78;;
51810;SDS011;52468;40.116;18.296;2023-06-10T08:53:04;7.70;;;2.55;;
51810;SDS011;52468;40.116;18.296;2023-06-10T08:55:35;4.65;;;3.25;;
51810;SDS011;52468;40.116;18.296;2023-06-10T08:58:05;2.60;;;2.00;;
51810;SDS011;52468;40.116;18.296;2023-06-10T09:00:33;5.45;;;2.50;;
51810;SDS011;52468;40.116;18.296;2023-06-10T09:03:03;3.72;;;2.38;;
51810;SDS011;52468;40.116;18.296;2023-06-10T09:05:33;3.28;;;2.13;;
51810;SDS011;52468;40.116;18.296;2023-06-10T09:08:01;3.95;;;2.22;;
51810;SDS011;52468;40.116;18.296;2023-06-10T09:10:29;5.95;;;2.20;;
51810;SDS011;52468;40.116;18.296;2023-06-10T09:12:57;5.63;;;2.95;;
51810;SDS011;52468;40.116;18.296;2023-06-10T09:15:25;6.13;;;2.45;;
51810;SDS011;52468;40.116;18.296;2023-06-10T09:17:53;4.05;;;2.15;;
51810;SDS011;52468;40.116;18.296;2023-06-10T09:20:22;6.55;;;2.63;;
51810;SDS011;52468;40.116;18.296;2023-06-10T09:22:50;2.97;;;2.40;;
51810;SDS011;52468;40.116;18.296;2023-06-10T09:25:18;3.72;;;2.40;;
51810;SDS011;52468;40.116;18.296;2023-06-10T09:27:47;6.45;;;2.28;;
51810;SDS011;52468;40.116;18.296;2023-06-10T09:30:27;3.17;;;2.40;;
51810;SDS011;52468;40.116;18.296;2023-06-10T09:33:01;5.07;;;2.53;;
51810;SDS011;52468;40.116;18.296;2023-06-10T09:35:30;4.07;;;2.40;;
51810;SDS011;52468;40.116;18.296;2023-06-10T09:37:59;3.67;;;2.33;;
51810;SDS011;52468;40.116;18.296;2023-06-10T09:40:27;5.28;;;3.05;;
51810;SDS011;52468;40.116;18.296;2023-06-10T09:42:56;4.45;;;2.47;;
51810;SDS011;52468;40.116;18.296;2023-06-10T09:45:29;3.83;;;2.67;;
51810;SDS011;52468;40.116;18.296;2023-06-10T09:48:01;4.20;;;2.45;;
51810;SDS011;52468;40.116;18.296;2023-06-10T09:50:32;4.63;;;2.28;;
51810;SDS011;52468;40.116;18.296;2023-06-10T09:53:01;4.57;;;3.17;;
51810;SDS011;52468;40.116;18.296;2023-06-10T09:55:32;2.85;;;2.40;;
51810;SDS011;52468;40.116;18.296;2023-06-10T09:58:01;2.85;;;1.92;;
51810;SDS011;52468;40.116;18.296;2023-06-10T10:00:28;3.78;;;2.10;;
51810;SDS011;52468;40.116;18.296;2023-06-10T10:03:00;5.90;;;2.50;;
51810;SDS011;52468;40.116;18.296;2023-06-10T10:05:28;2.50;;;2.28;;
51810;SDS011;52468;40.116;18.296;2023-06-10T10:07:57;3.80;;;1.90;;
51810;SDS011;52468;40.116;18.296;2023-06-10T10:10:25;2.28;;;1.45;;
51810;SDS011;52468;40.116;18.296;2023-06-10T10:12:56;6.22;;;2.28;;
51810;SDS011;52468;40.116;18.296;2023-06-10T10:15:25;8.43;;;5.32;;
51810;SDS011;52468;40.116;18.296;2023-06-10T10:18:18;5.00;;;2.83;;
51810;SDS011;52468;40.116;18.296;2023-06-10T10:20:47;2.30;;;2.00;;
51810;SDS011;52468;40.116;18.296;2023-06-10T10:23:21;2.95;;;1.98;;
51810;SDS011;52468;40.116;18.296;2023-06-10T10:25:53;6.50;;;2.20;;
51810;SDS011;52468;40.116;18.296;2023-06-10T10:28:24;1.58;;;1.33;;
51810;SDS011;52468;40.116;18.296;2023-06-10T10:30:54;2.30;;;1.70;;
51810;SDS011;52468;40.116;18.296;2023-06-10T10:36:03;3.08;;;2.45;;
51810;SDS011;52468;40.116;18.296;2023-06-10T10:38:31;6.78;;;3.10;;
51810;SDS011;52468;40.116;18.296;2023-06-10T10:40:59;5.55;;;2.88;;
51810;SDS011;52468;40.116;18.296;2023-06-10T10:43:28;5.18;;;3.03;;
51810;SDS011;52468;40.116;18.296;2023-06-10T10:46:01;19.50;;;6.53;;
51810;SDS011;52468;40.116;18.296;2023-06-10T10:48:33;6.90;;;3.43;;
51810;SDS011;52468;40.116;18.296;2023-06-10T10:51:04;8.33;;;3.20;;
51810;SDS011;52468;40.116;18.296;2023-06-10T10:53:32;4.83;;;3.13;;
51810;SDS011;52468;40.116;18.296;2023-06-10T10:56:07;8.00;;;3.10;;
51810;SDS011;52468;40.116;18.296;2023-06-10T10:58:40;8.77;;;3.30;;
51810;SDS011;52468;40.116;18.296;2023-06-10T11:01:12;3.83;;;2.43;;
51810;SDS011;52468;40.116;18.296;2023-06-10T11:03:42;4.10;;;2.70;;
51810;SDS011;52468;40.116;18.296;2023-06-10T11:06:15;4.07;;;2.75;;
51810;SDS011;52468;40.116;18.296;2023-06-10T11:08:45;4.07;;;2.70;;
51810;SDS011;52468;40.116;18.296;2023-06-10T11:11:18;9.13;;;3.40;;
51810;SDS011;52468;40.116;18.296;2023-06-10T11:16:27;4.20;;;2.30;;
51810;SDS011;52468;40.116;18.296;2023-06-10T11:18:56;4.40;;;2.03;;
51810;SDS011;52468;40.116;18.296;2023-06-10T11:21:24;5.27;;;2.80;;
51810;SDS011;52468;40.116;18.296;2023-06-10T11:23:57;6.30;;;3.60;;
51810;SDS011;52468;40.116;18.296;2023-06-10T11:33:54;8.47;;;3.63;;
51810;SDS011;52468;40.116;18.296;2023-06-10T11:36:23;6.93;;;3.13;;
51810;SDS011;52468;40.116;18.296;2023-06-10T11:38:53;6.70;;;3.00;;
51810;SDS011;52468;40.116;18.296;2023-06-10T11:41:27;9.20;;;2.87;;
51810;SDS011;52468;40.116;18.296;2023-06-10T11:44:17;4.33;;;2.27;;
51810;SDS011;52468;40.116;18.296;2023-06-10T11:46:47;8.63;;;2.27;;
51810;SDS011;52468;40.116;18.296;2023-06-10T11:49:16;5.23;;;2.23;;
51810;SDS011;52468;40.116;18.296;2023-06-10T11:51:44;4.77;;;1.53;;
51810;SDS011;52468;40.116;18.296;2023-06-10T11:54:17;3.25;;;1.67;;
51810;SDS011;52468;40.116;18.296;2023-06-10T11:56:45;4.83;;;1.50;;
51810;SDS011;52468;40.116;18.296;2023-06-10T11:59:14;2.47;;;1.80;;
51810;SDS011;52468;40.116;18.296;2023-06-10T12:01:43;3.53;;;2.43;;
51810;SDS011;52468;40.116;18.296;2023-06-10T12:04:13;4.23;;;2.07;;
51810;SDS011;52468;40.116;18.296;2023-06-10T12:06:46;5.77;;;3.00;;
51810;SDS011;52468;40.116;18.296;2023-06-10T12:12:03;3.63;;;2.17;;
51810;SDS011;52468;40.116;18.296;2023-06-10T12:17:19;4.47;;;2.50;;
51810;SDS011;52468;40.116;18.296;2023-06-10T12:19:49;4.57;;;2.43;;
51810;SDS011;52468;40.116;18.296;2023-06-10T12:22:18;3.80;;;2.53;;
51810;SDS011;52468;40.116;18.296;2023-06-10T12:24:59;5.17;;;2.87;;
51810;SDS011;52468;40.116;18.296;2023-06-10T12:27:32;3.40;;;2.20;;
51810;SDS011;52468;40.116;18.296;2023-06-10T12:30:01;4.13;;;2.70;;
51810;SDS011;52468;40.116;18.296;2023-06-10T12:35:08;4.07;;;3.20;;
51810;SDS011;52468;40.116;18.296;2023-06-10T12:37:38;3.83;;;2.53;;
51810;SDS011;52468;40.116;18.296;2023-06-10T12:40:10;3.03;;;2.40;;
51810;SDS011;52468;40.116;18.296;2023-06-10T12:42:38;3.43;;;2.30;;
51810;SDS011;52468;40.116;18.296;2023-06-10T12:45:06;5.10;;;3.00;;
51810;SDS011;52468;40.116;18.296;2023-06-10T12:47:37;5.73;;;3.03;;
51810;SDS011;52468;40.116;18.296;2023-06-10T12:50:07;8.33;;;5.20;;
51810;SDS011;52468;40.116;18.296;2023-06-10T12:52:35;7.00;;;3.97;;
51810;SDS011;52468;40.116;18.296;2023-06-10T12:55:03;6.73;;;4.33;;
51810;SDS011;52468;40.116;18.296;2023-06-10T12:57:32;5.43;;;4.63;;
51810;SDS011;52468;40.116;18.296;2023-06-10T13:00:00;7.20;;;4.97;;
51810;SDS011;52468;40.116;18.296;2023-06-10T13:02:32;11.65;;;5.95;;
51810;SDS011;52468;40.116;18.296;2023-06-10T13:05:00;5.70;;;4.60;;
51810;SDS011;52468;40.116;18.296;2023-06-10T13:07:29;6.50;;;5.10;;
51810;SDS011;52468;40.116;18.296;2023-06-10T13:09:57;8.40;;;5.50;;
51810;SDS011;52468;40.116;18.296;2023-06-10T13:12:26;10.50;;;5.43;;
51810;SDS011;52468;40.116;18.296;2023-06-10T13:15:00;7.47;;;5.33;;
51810;SDS011;52468;40.116;18.296;2023-06-10T13:17:29;8.03;;;5.47;;
51810;SDS011;52468;40.116;18.296;2023-06-10T13:19:57;8.37;;;6.10;;
51810;SDS011;52468;40.116;18.296;2023-06-10T13:22:25;9.53;;;7.30;;
51810;SDS011;52468;40.116;18.296;2023-06-10T13:24:54;8.63;;;5.70;;
51810;SDS011;52468;40.116;18.296;2023-06-10T13:27:22;8.97;;;6.00;;
51810;SDS011;52468;40.116;18.296;2023-06-10T13:29:50;6.47;;;4.67;;
51810;SDS011;52468;40.116;18.296;2023-06-10T13:32:18;6.40;;;5.03;;
51810;SDS011;52468;40.116;18.296;2023-06-10T13:34:45;6.57;;;4.00;;
51810;SDS011;52468;40.116;18.296;2023-06-10T13:37:13;5.93;;;3.37;;
51810;SDS011;52468;40.116;18.296;2023-06-10T13:39:42;6.57;;;2.93;;
51810;SDS011;52468;40.116;18.296;2023-06-10T13:42:10;2.57;;;1.50;;
51810;SDS011;52468;40.116;18.296;2023-06-10T13:44:38;1.67;;;1.30;;
51810;SDS011;52468;40.116;18.296;2023-06-10T13:47:06;4.50;;;2.23;;
51810;SDS011;52468;40.116;18.296;2023-06-10T13:49:34;2.43;;;1.07;;
51810;SDS011;52468;40.116;18.296;2023-06-10T13:52:02;1.03;;;0.93;;
51810;SDS011;52468;40.116;18.296;2023-06-10T13:54:30;1.87;;;1.40;;
51810;SDS011;52468;40.116;18.296;2023-06-10T13:56:58;3.40;;;1.73;;
51810;SDS011;52468;40.116;18.296;2023-06-10T13:59:27;2.13;;;1.27;;
51810;SDS011;52468;40.116;18.296;2023-06-10T14:01:55;1.83;;;1.10;;
51810;SDS011;52468;40.116;18.296;2023-06-10T14:04:23;1.50;;;1.17;;
51810;SDS011;52468;40.116;18.296;2023-06-10T14:06:51;2.53;;;1.33;;
51810;SDS011;52468;40.116;18.296;2023-06-10T14:09:19;2.40;;;1.20;;
51810;SDS011;52468;40.116;18.296;2023-06-10T14:11:47;2.77;;;1.90;;
51810;SDS011;52468;40.116;18.296;2023-06-10T14:14:15;3.20;;;2.13;;
51810;SDS011;52468;40.116;18.296;2023-06-10T14:16:43;3.27;;;2.20;;
51810;SDS011;52468;40.116;18.296;2023-06-10T14:19:11;1.73;;;1.50;;
51810;SDS011;52468;40.116;18.296;2023-06-10T14:21:38;6.50;;;2.00;;
51810;SDS011;52468;40.116;18.296;2023-06-10T14:24:06;3.17;;;1.97;;
51810;SDS011;52468;40.116;18.296;2023-06-10T14:26:34;2.20;;;2.00;;
51810;SDS011;52468;40.116;18.296;2023-06-10T14:29:02;3.07;;;2.00;;
51810;SDS011;52468;40.116;18.296;2023-06-10T14:31:30;2.17;;;1.50;;
51810;SDS011;52468;40.116;18.296;2023-06-10T14:33:58;4.40;;;1.97;;
51810;SDS011;52468;40.116;18.296;2023-06-10T14:36:26;2.67;;;2.30;;
51810;SDS011;52468;40.116;18.296;2023-06-10T14:38:53;2.70;;;2.07;;
51810;SDS011;52468;40.116;18.296;2023-06-10T14:41:21;4.77;;;3.10;;
51810;SDS011;52468;40.116;18.296;2023-06-10T14:43:49;4.53;;;2.53;;
51810;SDS011;52468;40.116;18.296;2023-06-10T14:46:17;2.83;;;1.97;;
51810;SDS011;52468;40.116;18.296;2023-06-10T14:48:45;3.60;;;2.53;;
51810;SDS011;52468;40.116;18.296;2023-06-10T14:51:13;3.87;;;2.37;;
51810;SDS011;52468;40.116;18.296;2023-06-10T14:53:41;3.63;;;3.10;;
51810;SDS011;52468;40.116;18.296;2023-06-10T14:56:08;2.20;;;2.00;;
51810;SDS011;52468;40.116;18.296;2023-06-10T14:58:36;3.77;;;2.43;;
51810;SDS011;52468;40.116;18.296;2023-06-10T15:01:04;3.70;;;2.50;;
51810;SDS011;52468;40.116;18.296;2023-06-10T15:03:32;4.63;;;3.27;;
51810;SDS011;52468;40.116;18.296;2023-06-10T15:06:00;3.53;;;3.00;;
51810;SDS011;52468;40.116;18.296;2023-06-10T15:08:28;2.90;;;2.00;;